sensor_id;sensor_type;location;lat;lon;timestamp;pressure;altitude;pressure_sealevel;temperature;humidity
9721;BME280;4899;42.644;23.366;2022-07-01T00:00:28;94304.25;;;19.63;100.00
9721;BME280;4899;42.644;23.366;2022-07-01T00:02:55;94320.31;;;19.69;100.00
9721;BME280;4899;42.644;23.366;2022-07-01T00:05:22;94313.59;;;19.67;100.00
9721;BME280;4899;42.644;23.366;2022-07-01T00:07:49;94286.59;;;19.49;100.00
9721;BME280;4899;42.644;23.366;2022-07-01T00:10:16;94315.47;;;19.67;100.00
9721;BME280;4899;42.644;23.366;2022-07-01T00:12:43;94290.38;;;19.55;100.00
9721;BME280;4899;42.644;23.366;2022-07-01T00:15:13;94300.88;;;19.59;100.00
9721;BME280;4899;42.644;23.366;2022-07-01T00:17:40;94312.84;;;19.63;100.00
9721;BME280;4899;42.644;23.366;2022-07-01T00:20:09;94308.72;;;19.62;100.00
9721;BME280;4899;42.644;23.366;2022-07-01T00:22:37;94324.06;;;19.71;100.00
9721;BME280;4899;42.644;23.366;2022-07-01T00:25:04;94327.81;;;19.74;100.00
9721;BME280;4899;42.644;23.366;2022-07-01T00:27:32;94309.19;;;19.79;100.00
9721;BME280;4899;42.644;23.366;2022-07-01T00:30:01;94317.03;;;19.79;100.00
9721;BME280;4899;42.644;23.366;2022-07-01T00:32:29;94305.41;;;19.69;100.00
9721;BME280;4899;42.644;23.366;2022-07-01T00:34:56;94324.06;;;19.71;100.00
9721;BME280;4899;42.644;23.366;2022-07-01T00:37:23;94315.72;;;19.55;100.00
9721;BME280;4899;42.644;23.366;2022-07-01T00:39:50;94317.88;;;19.46;100.00
9721;BME280;4899;42.644;23.366;2022-07-01T00:42:17;94306.91;;;19.29;100.00
9721;BME280;4899;42.644;23.366;2022-07-01T00:44:44;94322.25;;;19.34;100.00
9721;BME280;4899;42.644;23.366;2022-07-01T00:47:12;94329.66;;;19.32;100.00
9721;BME280;4899;42.644;23.366;2022-07-01T00:49:41;94307.91;;;19.14;100.00
9721;BME280;4899;42.644;23.366;2022-07-01T00:52:09;94329.63;;;19.29;100.00
9721;BME280;4899;42.644;23.366;2022-07-01T00:54:37;94331.84;;;19.23;100.00
9721;BME280;4899;42.644;23.366;2022-07-01T00:57:08;94336.31;;;19.23;100.00
9721;BME280;4899;42.644;23.366;2022-07-01T00:59:36;94311.63;;;19.13;100.00
9721;BME280;4899;42.644;23.366;2022-07-01T01:02:04;94331.78;;;19.16;100.00
9721;BME280;4899;42.644;23.366;2022-07-01T01:04:31;94330.25;;;19.12;100.00
9721;BME280;4899;42.644;23.366;2022-07-01T01:07:00;94324.28;;;19.11;100.00
9721;BME280;4899;42.644;23.366;2022-07-01T01:09:28;94320.16;;;19.10;100.00
9721;BME280;4899;42.644;23.366;2022-07-01T01:11:55;94317.94;;;19.12;100.00
9721;BME280;4899;42.644;23.366;2022-07-01T01:14:23;94324.28;;;19.11;100.00
9721;BME280;4899;42.644;23.366;2022-07-01T01:16:50;94328.00;;;19.10;100.00
9721;BME280;4899;42.644;23.366;2022-07-01T01:19:17;94338.81;;;19.12;100.00
9721;BME280;4899;42.644;23.366;2022-07-01T01:21:45;94332.78;;;19.08;100.00
9721;BME280;4899;42.644;23.366;2022-07-01T01:24:12;94315.91;;;18.95;100.00
9721;BME280;4899;42.644;23.366;2022-07-01T01:26:39;94319.63;;;18.94;100.00
9721;BME280;4899;42.644;23.366;2022-07-01T01:29:06;94332.19;;;18.85;100.00
9721;BME280;4899;42.644;23.366;2022-07-01T01:31:33;94323.16;;;18.79;100.00
9721;BME280;4899;42.644;23.366;2022-07-01T01:34:01;94327.56;;;18.71;100.00
9721;BME280;4899;42.644;23.366;2022-07-01T01:36:29;94310.97;;;18.56;100.00
9721;BME280;4899;42.644;23.366;2022-07-01T01:38:57;94336.06;;;18.64;100.00
9721;BME280;4899;42.644;23.366;2022-07-01T01:41:27;94331.88;;;18.60;100.00
9721;BME280;4899;42.644;23.366;2022-07-01T01:43:54;94335.97;;;18.61;100.00
9721;BME280;4899;42.644;23.366;2022-07-01T01:46:21;94334.13;;;18.61;100.00
9721;BME280;4899;42.644;23.366;2022-07-01T01:48:47;94327.50;;;18.64;100.00
9721;BME280;4899;42.644;23.366;2022-07-01T01:51:14;94331.28;;;18.70;100.00
9721;BME280;4899;42.644;23.366;2022-07-01T01:53:44;94333.44;;;18.64;100.00
9721;BME280;4899;42.644;23.366;2022-07-01T01:56:12;94324.75;;;18.57;100.00
9721;BME280;4899;42.644;23.366;2022-07-01T01:58:39;94329.53;;;18.51;100.00
9721;BME280;4899;42.644;23.366;2022-07-01T02:01:08;94319.78;;;18.44;100.00
9721;BME280;4899;42.644;23.366;2022-07-01T02:03:35;94327.59;;;18.44;100.00
9721;BME280;4899;42.644;23.366;2022-07-01T02:06:03;94333.19;;;18.47;100.00
9721;BME280;4899;42.644;23.366;2022-07-01T02:08:30;94336.16;;;18.45;100.00
9721;BME280;4899;42.644;23.366;2022-07-01T02:10:57;94337.63;;;18.42;100.00
9721;BME280;4899;42.644;23.366;2022-07-01T02:13:25;94336.78;;;18.35;100.00
9721;BME280;4899;42.644;23.366;2022-07-01T02:15:52;94342.28;;;18.30;100.00
9721;BME280;4899;42.644;23.366;2022-07-01T02:18:19;94346.34;;;18.27;100.00
9721;BME280;4899;42.644;23.366;2022-07-01T02:20:45;94326.03;;;18.10;100.00
9721;BME280;4899;42.644;23.366;2022-07-01T02:23:12;94351.50;;;18.24;100.00
9721;BME280;4899;42.644;23.366;2022-07-01T02:25:40;94329.72;;;18.09;100.00
9721;BME280;4899;42.644;23.366;2022-07-01T02:28:08;94347.44;;;18.26;100.00
9721;BME280;4899;42.644;23.366;2022-07-01T02:30:36;94350.41;;;18.25;100.00
9721;BME280;4899;42.644;23.366;2022-07-01T02:33:04;94340.19;;;18.12;100.00
9721;BME280;4899;42.644;23.366;2022-07-01T02:35:31;94360.72;;;18.18;100.00
9721;BME280;4899;42.644;23.366;2022-07-01T02:37:59;94357.31;;;18.13;100.00
9721;BME280;4899;42.644;23.366;2022-07-01T02:40:26;94370.56;;;18.05;100.00
9721;BME280;4899;42.644;23.366;2022-07-01T02:42:53;94376.81;;;18.00;100.00
9721;BME280;4899;42.644;23.366;2022-07-01T02:45:20;94371.13;;;17.91;100.00
9721;BME280;4899;42.644;23.366;2022-07-01T02:47:49;94372.53;;;17.85;100.00
9721;BME280;4899;42.644;23.366;2022-07-01T02:50:18;94374.38;;;17.85;100.00
9721;BME280;4899;42.644;23.366;2022-07-01T02:52:45;94381.81;;;17.86;100.00
9721;BME280;4899;42.644;23.366;2022-07-01T02:55:13;94381.19;;;17.93;100.00
9721;BME280;4899;42.644;23.366;2022-07-01T02:57:41;94383.13;;;17.99;100.00
9721;BME280;4899;42.644;23.366;2022-07-01T03:00:12;94394.34;;;18.03;100.00
9721;BME280;4899;42.644;23.366;2022-07-01T03:02:39;94383.22;;;18.06;100.00
9721;BME280;4899;42.644;23.366;2022-07-01T03:05:09;94383.34;;;18.13;100.00
9721;BME280;4899;42.644;23.366;2022-07-01T03:07:37;94390.06;;;18.14;100.00
9721;BME280;4899;42.644;23.366;2022-07-01T03:10:06;94392.38;;;18.20;100.00
9721;BME280;4899;42.644;23.366;2022-07-01T03:12:33;94398.38;;;18.24;100.00
9721;BME280;4899;42.644;23.366;2022-07-01T03:15:02;94405.88;;;18.29;100.00
9721;BME280;4899;42.644;23.366;2022-07-01T03:17:31;94399.88;;;18.25;100.00
9721;BME280;4899;42.644;23.366;2022-07-01T03:19:59;94405.94;;;18.32;100.00
9721;BME280;4899;42.644;23.366;2022-07-01T03:22:29;94410.09;;;18.37;100.00
9721;BME280;4899;42.644;23.366;2022-07-01T03:24:56;94399.69;;;18.37;100.00
9721;BME280;4899;42.644;23.366;2022-07-01T03:27:25;94411.31;;;18.43;100.00
9721;BME280;4899;42.644;23.366;2022-07-01T03:29:52;94406.88;;;18.47;100.00
9721;BME280;4899;42.644;23.366;2022-07-01T03:32:19;94403.88;;;18.45;100.00
9721;BME280;4899;42.644;23.366;2022-07-01T03:34:48;94405.06;;;18.51;100.00
9721;BME280;4899;42.644;23.366;2022-07-01T03:37:15;94404.72;;;18.53;100.00
9721;BME280;4899;42.644;23.366;2022-07-01T03:39:45;94409.19;;;18.52;100.00
9721;BME280;4899;42.644;23.366;2022-07-01T03:42:12;94406.34;;;18.61;100.00
9721;BME280;4899;42.644;23.366;2022-07-01T03:44:39;94410.16;;;18.67;100.00
9721;BME280;4899;42.644;23.366;2022-07-01T03:47:07;94377.22;;;18.55;100.00
9721;BME280;4899;42.644;23.366;2022-07-01T03:49:34;94397.56;;;18.72;100.00
9721;BME280;4899;42.644;23.366;2022-07-01T03:52:01;94412.19;;;18.81;100.00
9721;BME280;4899;42.644;23.366;2022-07-01T03:54:28;94406.69;;;18.86;100.00
9721;BME280;4899;42.644;23.366;2022-07-01T03:57:01;94410.81;;;18.90;100.00
9721;BME280;4899;42.644;23.366;2022-07-01T03:59:29;94384.66;;;18.83;100.00
9721;BME280;4899;42.644;23.366;2022-07-01T04:01:57;94406.84;;;19.00;100.00
9721;BME280;4899;42.644;23.366;2022-07-01T04:04:27;94406.91;;;19.07;100.00
9721;BME280;4899;42.644;23.366;2022-07-01T04:06:55;94412.97;;;19.15;100.00
9721;BME280;4899;42.644;23.366;2022-07-01T04:09:24;94415.63;;;19.18;100.00
9721;BME280;4899;42.644;23.366;2022-07-01T04:11:52;94418.28;;;19.25;100.00
9721;BME280;4899;42.644;23.366;2022-07-01T04:14:20;94415.44;;;19.34;100.00
9721;BME280;4899;42.644;23.366;2022-07-01T04:16:49;94409.13;;;19.39;100.00
9721;BME280;4899;42.644;23.366;2022-07-01T04:19:16;94423.72;;;19.43;100.00
9721;BME280;4899;42.644;23.366;2022-07-01T04:21:44;94425.19;;;19.41;100.00
9721;BME280;4899;42.644;23.366;2022-07-01T04:24:28;94431.94;;;19.45;100.00
9721;BME280;4899;42.644;23.366;2022-07-01T04:26:58;94403.53;;;19.36;100.00
9721;BME280;4899;42.644;23.366;2022-07-01T04:29:26;94427.88;;;19.51;100.00
9721;BME280;4899;42.644;23.366;2022-07-01T04:31:54;94429.84;;;19.58;100.00
9721;BME280;4899;42.644;23.366;2022-07-01T04:34:22;94420.50;;;19.57;100.00
9721;BME280;4899;42.644;23.366;2022-07-01T04:36:49;94435.91;;;19.69;100.00
9721;BME280;4899;42.644;23.366;2022-07-01T04:39:16;94435.94;;;19.73;100.00
9721;BME280;4899;42.644;23.366;2022-07-01T04:41:42;94436.72;;;19.77;100.00
9721;BME280;4899;42.644;23.366;2022-07-01T04:44:30;94437.16;;;19.82;100.00
9721;BME280;4899;42.644;23.366;2022-07-01T04:46:58;94431.66;;;19.91;100.00
9721;BME280;4899;42.644;23.366;2022-07-01T04:49:25;94448.13;;;19.98;100.00
9721;BME280;4899;42.644;23.366;2022-07-01T04:51:52;94430.25;;;20.04;100.00
9721;BME280;4899;42.644;23.366;2022-07-01T04:54:20;94436.28;;;20.12;100.00
9721;BME280;4899;42.644;23.366;2022-07-01T04:56:47;94442.34;;;20.23;100.00
9721;BME280;4899;42.644;23.366;2022-07-01T04:59:15;94427.38;;;20.20;100.00
9721;BME280;4899;42.644;23.366;2022-07-01T05:01:44;94409.84;;;20.17;100.00
9721;BME280;4899;42.644;23.366;2022-07-01T05:04:15;94427.56;;;20.41;100.00
9721;BME280;4899;42.644;23.366;2022-07-01T05:06:42;94426.84;;;20.44;100.00
9721;BME280;4899;42.644;23.366;2022-07-01T05:09:09;94441.50;;;20.60;100.00
9721;BME280;4899;42.644;23.366;2022-07-01T05:11:36;94434.78;;;20.62;100.00
9721;BME280;4899;42.644;23.366;2022-07-01T05:14:04;94437.06;;;20.71;100.00
9721;BME280;4899;42.644;23.366;2022-07-01T05:16:32;94428.88;;;20.72;100.00
9721;BME280;4899;42.644;23.366;2022-07-01T05:19:02;94427.75;;;20.77;100.00
9721;BME280;4899;42.644;23.366;2022-07-01T05:21:47;94442.00;;;20.83;100.00
9721;BME280;4899;42.644;23.366;2022-07-01T05:24:25;94444.25;;;20.84;100.00
9721;BME280;4899;42.644;23.366;2022-07-01T05:26:53;94438.31;;;20.91;100.00
9721;BME280;4899;42.644;23.366;2022-07-01T05:29:21;94425.97;;;20.92;100.00
9721;BME280;4899;42.644;23.366;2022-07-01T05:31:48;94438.75;;;21.07;100.00
9721;BME280;4899;42.644;23.366;2022-07-01T05:34:17;94436.91;;;21.15;100.00
9721;BME280;4899;42.644;23.366;2022-07-01T05:36:43;94429.06;;;21.15;100.00
9721;BME280;4899;42.644;23.366;2022-07-01T05:39:11;94427.97;;;21.19;100.00
9721;BME280;4899;42.644;23.366;2022-07-01T05:41:39;94443.72;;;21.30;100.00
9721;BME280;4899;42.644;23.366;2022-07-01T05:44:06;94438.53;;;21.41;100.00
9721;BME280;4899;42.644;23.366;2022-07-01T05:46:33;94428.06;;;21.48;100.00
9721;BME280;4899;42.644;23.366;2022-07-01T05:49:01;94430.34;;;21.57;100.00
9721;BME280;4899;42.644;23.366;2022-07-01T05:51:31;94439.34;;;21.70;100.00
9721;BME280;4899;42.644;23.366;2022-07-01T05:53:58;94441.22;;;21.73;100.00
9721;BME280;4899;42.644;23.366;2022-07-01T05:56:26;94418.75;;;21.68;100.00
9721;BME280;4899;42.644;23.366;2022-07-01T05:58:53;94448.34;;;21.90;100.00
9721;BME280;4899;42.644;23.366;2022-07-01T06:01:20;94439.75;;;21.97;100.00
9721;BME280;4899;42.644;23.366;2022-07-01T06:03:47;94434.50;;;21.97;100.00
9721;BME280;4899;42.644;23.366;2022-07-01T06:06:14;94430.38;;;21.99;100.00
9721;BME280;4899;42.644;23.366;2022-07-01T06:08:45;94425.94;;;22.07;100.00
9721;BME280;4899;42.644;23.366;2022-07-01T06:11:12;94446.88;;;22.25;100.00
9721;BME280;4899;42.644;23.366;2022-07-01T06:13:40;94439.03;;;22.18;100.00
9721;BME280;4899;42.644;23.366;2022-07-01T06:16:07;94452.13;;;22.39;100.00
9721;BME280;4899;42.644;23.366;2022-07-01T06:18:34;94440.88;;;22.42;100.00
9721;BME280;4899;42.644;23.366;2022-07-01T06:21:01;94444.25;;;22.42;100.00
9721;BME280;4899;42.644;23.366;2022-07-01T06:23:28;94427.78;;;22.42;100.00
9721;BME280;4899;42.644;23.366;2022-07-01T06:25:56;94444.97;;;22.64;100.00
9721;BME280;4899;42.644;23.366;2022-07-01T06:28:23;94457.31;;;22.78;100.00
9721;BME280;4899;42.644;23.366;2022-07-01T06:30:55;94462.56;;;22.85;100.00
9721;BME280;4899;42.644;23.366;2022-07-01T06:33:22;94453.19;;;22.88;100.00
9721;BME280;4899;42.644;23.366;2022-07-01T06:35:49;94452.03;;;22.96;100.00
9721;BME280;4899;42.644;23.366;2022-07-01T06:38:16;94456.16;;;23.08;100.00
9721;BME280;4899;42.644;23.366;2022-07-01T06:40:43;94450.88;;;23.15;100.00
9721;BME280;4899;42.644;23.366;2022-07-01T06:43:31;94447.47;;;23.21;100.00
9721;BME280;4899;42.644;23.366;2022-07-01T06:45:58;94437.75;;;23.15;100.00
9721;BME280;4899;42.644;23.366;2022-07-01T06:48:25;94458.31;;;23.27;100.00
9721;BME280;4899;42.644;23.366;2022-07-01T06:50:52;94444.44;;;23.30;100.00
9721;BME280;4899;42.644;23.366;2022-07-01T06:53:19;94453.38;;;23.43;100.00
9721;BME280;4899;42.644;23.366;2022-07-01T06:55:45;94454.84;;;23.48;100.00
9721;BME280;4899;42.644;23.366;2022-07-01T06:58:12;94450.34;;;23.45;100.00
9721;BME280;4899;42.644;23.366;2022-07-01T07:00:41;94454.47;;;23.56;100.00
9721;BME280;4899;42.644;23.366;2022-07-01T07:03:08;94454.00;;;23.69;100.00
9721;BME280;4899;42.644;23.366;2022-07-01T07:05:35;94454.31;;;23.78;100.00
9721;BME280;4899;42.644;23.366;2022-07-01T07:08:02;94452.44;;;23.82;100.00
9721;BME280;4899;42.644;23.366;2022-07-01T07:10:29;94456.91;;;23.85;100.00
9721;BME280;4899;42.644;23.366;2022-07-01T07:12:56;94451.63;;;23.92;100.00
9721;BME280;4899;42.644;23.366;2022-07-01T07:15:23;94459.81;;;24.01;100.00
9721;BME280;4899;42.644;23.366;2022-07-01T07:17:51;94462.38;;;24.12;100.00
9721;BME280;4899;42.644;23.366;2022-07-01T07:20:19;94464.97;;;24.15;100.00
9721;BME280;4899;42.644;23.366;2022-07-01T07:22:46;94464.16;;;24.22;100.00
9721;BME280;4899;42.644;23.366;2022-07-01T07:25:13;94456.25;;;24.25;100.00
9721;BME280;4899;42.644;23.366;2022-07-01T07:27:40;94464.06;;;24.40;100.00
9721;BME280;4899;42.644;23.366;2022-07-01T07:30:08;94463.28;;;24.43;100.00
9721;BME280;4899;42.644;23.366;2022-07-01T07:32:35;94462.84;;;24.48;100.00
9721;BME280;4899;42.644;23.366;2022-07-01T07:35:03;94460.22;;;24.48;100.00
9721;BME280;4899;42.644;23.366;2022-07-01T07:37:32;94460.91;;;24.56;100.00
9721;BME280;4899;42.644;23.366;2022-07-01T07:39:59;94462.34;;;24.64;100.00
9721;BME280;4899;42.644;23.366;2022-07-01T07:42:26;94458.78;;;24.81;100.00
9721;BME280;4899;42.644;23.366;2022-07-01T07:44:53;94458.75;;;24.84;100.00
9721;BME280;4899;42.644;23.366;2022-07-01T07:47:20;94453.88;;;24.83;100.00
9721;BME280;4899;42.644;23.366;2022-07-01T07:49:47;94466.88;;;24.97;100.00
9721;BME280;4899;42.644;23.366;2022-07-01T07:52:15;94460.41;;;25.09;100.00
9721;BME280;4899;42.644;23.366;2022-07-01T07:54:42;94461.00;;;25.20;100.00
9721;BME280;4899;42.644;23.366;2022-07-01T07:57:09;94451.94;;;25.25;100.00
9721;BME280;4899;42.644;23.366;2022-07-01T07:59:36;94456.78;;;25.30;100.00
9721;BME280;4899;42.644;23.366;2022-07-01T08:02:03;94448.75;;;25.40;100.00
9721;BME280;4899;42.644;23.366;2022-07-01T08:04:30;94463.63;;;25.54;100.00
9721;BME280;4899;42.644;23.366;2022-07-01T08:06:57;94453.84;;;25.55;100.00
9721;BME280;4899;42.644;23.366;2022-07-01T08:09:25;94452.59;;;25.63;100.00
9721;BME280;4899;42.644;23.366;2022-07-01T08:11:52;94446.19;;;25.64;100.00
9721;BME280;4899;42.644;23.366;2022-07-01T08:14:19;94448.28;;;25.76;100.00
9721;BME280;4899;42.644;23.366;2022-07-01T08:16:46;94421.63;;;25.70;100.00
9721;BME280;4899;42.644;23.366;2022-07-01T08:19:13;94449.19;;;25.93;100.00
9721;BME280;4899;42.644;23.366;2022-07-01T08:21:40;94437.38;;;26.01;100.00
9721;BME280;4899;42.644;23.366;2022-07-01T08:24:07;94437.56;;;26.14;100.00
9721;BME280;4899;42.644;23.366;2022-07-01T08:26:35;94436.22;;;26.29;100.00
9721;BME280;4899;42.644;23.366;2022-07-01T08:29:02;94445.50;;;26.37;100.00
9721;BME280;4899;42.644;23.366;2022-07-01T08:31:29;94435.97;;;26.43;100.00
9721;BME280;4899;42.644;23.366;2022-07-01T08:33:57;94445.25;;;26.51;100.00
9721;BME280;4899;42.644;23.366;2022-07-01T08:36:24;94440.22;;;26.60;95.94
9721;BME280;4899;42.644;23.366;2022-07-01T08:38:51;94422.75;;;26.66;91.88
9721;BME280;4899;42.644;23.366;2022-07-01T08:41:18;94432.25;;;26.84;93.62
9721;BME280;4899;42.644;23.366;2022-07-01T08:43:47;94434.63;;;26.98;100.00
9721;BME280;4899;42.644;23.366;2022-07-01T08:46:13;94432.06;;;26.94;95.80
9721;BME280;4899;42.644;23.366;2022-07-01T08:48:42;94432.78;;;26.95;92.94
9721;BME280;4899;42.644;23.366;2022-07-01T08:51:09;94437.25;;;26.98;96.82
9721;BME280;4899;42.644;23.366;2022-07-01T08:53:36;94429.69;;;27.00;96.59
9721;BME280;4899;42.644;23.366;2022-07-01T08:56:03;94438.50;;;27.13;93.27
9721;BME280;4899;42.644;23.366;2022-07-01T08:58:50;94441.28;;;27.26;100.00
9721;BME280;4899;42.644;23.366;2022-07-01T09:01:18;94432.81;;;27.35;94.11
9721;BME280;4899;42.644;23.366;2022-07-01T09:03:46;94434.34;;;27.52;89.86
9721;BME280;4899;42.644;23.366;2022-07-01T09:06:18;94438.84;;;27.71;86.18
9721;BME280;4899;42.644;23.366;2022-07-01T09:08:46;94435.56;;;27.83;95.33
9721;BME280;4899;42.644;23.366;2022-07-01T09:11:15;94442.34;;;28.01;86.30
9721;BME280;4899;42.644;23.366;2022-07-01T09:13:42;94434.09;;;28.15;76.14
9721;BME280;4899;42.644;23.366;2022-07-01T09:16:15;94443.69;;;28.25;74.78
9721;BME280;4899;42.644;23.366;2022-07-01T09:19:01;94432.94;;;28.32;79.41
9721;BME280;4899;42.644;23.366;2022-07-01T09:21:29;94435.75;;;28.41;77.08
9721;BME280;4899;42.644;23.366;2022-07-01T09:23:56;94431.75;;;28.49;71.84
9721;BME280;4899;42.644;23.366;2022-07-01T09:26:23;94438.19;;;28.65;74.47
9721;BME280;4899;42.644;23.366;2022-07-01T09:28:53;94443.06;;;28.66;70.13
9721;BME280;4899;42.644;23.366;2022-07-01T09:31:22;94434.38;;;28.66;71.52
9721;BME280;4899;42.644;23.366;2022-07-01T09:34:02;94430.38;;;28.74;68.70
9721;BME280;4899;42.644;23.366;2022-07-01T09:36:30;94438.16;;;28.81;65.57
9721;BME280;4899;42.644;23.366;2022-07-01T09:38:56;94434.50;;;28.91;64.52
9721;BME280;4899;42.644;23.366;2022-07-01T09:41:23;94429.66;;;29.02;60.99
9721;BME280;4899;42.644;23.366;2022-07-01T09:43:50;94433.13;;;28.99;63.93
9721;BME280;4899;42.644;23.366;2022-07-01T09:46:17;94418.38;;;28.86;66.43
9721;BME280;4899;42.644;23.366;2022-07-01T09:48:46;94424.44;;;28.99;65.68
9721;BME280;4899;42.644;23.366;2022-07-01T09:51:14;94420.03;;;29.08;61.41
9721;BME280;4899;42.644;23.366;2022-07-01T09:53:42;94413.69;;;29.19;66.15
9721;BME280;4899;42.644;23.366;2022-07-01T09:56:09;94418.13;;;29.22;57.58
9721;BME280;4899;42.644;23.366;2022-07-01T09:58:36;94413.06;;;29.27;58.78
9721;BME280;4899;42.644;23.366;2022-07-01T10:01:04;94417.00;;;29.35;59.72
9721;BME280;4899;42.644;23.366;2022-07-01T10:03:33;94398.34;;;29.26;67.77
9721;BME280;4899;42.644;23.366;2022-07-01T10:06:16;94382.88;;;29.25;58.72
9721;BME280;4899;42.644;23.366;2022-07-01T10:08:58;94408.00;;;29.46;65.76
9721;BME280;4899;42.644;23.366;2022-07-01T10:14:31;94413.00;;;29.82;55.22
9721;BME280;4899;42.644;23.366;2022-07-01T10:16:58;94391.25;;;29.87;52.08
9721;BME280;4899;42.644;23.366;2022-07-01T10:19:27;94379.03;;;30.02;54.04
9721;BME280;4899;42.644;23.366;2022-07-01T10:21:59;94410.28;;;30.33;48.21
9721;BME280;4899;42.644;23.366;2022-07-01T10:24:27;94405.31;;;30.22;42.68
9721;BME280;4899;42.644;23.366;2022-07-01T10:26:58;94386.97;;;30.15;45.27
9721;BME280;4899;42.644;23.366;2022-07-01T10:29:28;94391.72;;;30.33;42.85
9721;BME280;4899;42.644;23.366;2022-07-01T10:32:00;94397.53;;;30.40;41.44
9721;BME280;4899;42.644;23.366;2022-07-01T10:34:34;94395.91;;;30.43;43.09
9721;BME280;4899;42.644;23.366;2022-07-01T10:37:03;94382.81;;;30.61;44.88
9721;BME280;4899;42.644;23.366;2022-07-01T10:39:56;94385.53;;;30.70;40.36
9721;BME280;4899;42.644;23.366;2022-07-01T10:42:29;94381.25;;;30.95;41.64
9721;BME280;4899;42.644;23.366;2022-07-01T10:45:00;94381.94;;;31.30;42.69
9721;BME280;4899;42.644;23.366;2022-07-01T10:47:27;94370.38;;;31.64;42.38
9721;BME280;4899;42.644;23.366;2022-07-01T10:49:56;94372.13;;;31.98;44.17
9721;BME280;4899;42.644;23.366;2022-07-01T10:52:25;94373.50;;;32.76;40.01
9721;BME280;4899;42.644;23.366;2022-07-01T10:54:53;94370.56;;;34.48;38.67
9721;BME280;4899;42.644;23.366;2022-07-01T10:57:30;94375.38;;;36.58;36.61
9721;BME280;4899;42.644;23.366;2022-07-01T11:00:33;94381.03;;;38.17;34.83
9721;BME280;4899;42.644;23.366;2022-07-01T11:03:10;94384.94;;;39.54;32.18
9721;BME280;4899;42.644;23.366;2022-07-01T11:05:39;94395.38;;;40.72;31.76
9721;BME280;4899;42.644;23.366;2022-07-01T11:08:08;94392.19;;;41.44;28.48
9721;BME280;4899;42.644;23.366;2022-07-01T11:10:37;94384.63;;;41.92;29.42
9721;BME280;4899;42.644;23.366;2022-07-01T11:13:04;94384.63;;;41.92;28.03
9721;BME280;4899;42.644;23.366;2022-07-01T11:15:31;94394.03;;;42.90;27.06
9721;BME280;4899;42.644;23.366;2022-07-01T11:17:59;94389.75;;;43.99;27.81
9721;BME280;4899;42.644;23.366;2022-07-01T11:20:30;94391.38;;;44.68;23.95
9721;BME280;4899;42.644;23.366;2022-07-01T11:22:57;94405.88;;;45.46;24.59
9721;BME280;4899;42.644;23.366;2022-07-01T11:25:26;94391.63;;;46.39;24.93
9721;BME280;4899;42.644;23.366;2022-07-01T11:27:53;94389.63;;;46.47;23.43
9721;BME280;4899;42.644;23.366;2022-07-01T11:30:22;94369.72;;;46.16;22.28
9721;BME280;4899;42.644;23.366;2022-07-01T11:32:51;94382.75;;;46.53;22.72
9721;BME280;4899;42.644;23.366;2022-07-01T11:35:19;94391.69;;;46.62;23.83
9721;BME280;4899;42.644;23.366;2022-07-01T11:38:05;94374.78;;;46.12;23.91
9721;BME280;4899;42.644;23.366;2022-07-01T11:40:51;94380.47;;;45.93;23.33
9721;BME280;4899;42.644;23.366;2022-07-01T11:43:20;94367.59;;;46.29;21.42
9721;BME280;4899;42.644;23.366;2022-07-01T11:45:47;94375.72;;;46.66;21.37
9721;BME280;4899;42.644;23.366;2022-07-01T11:48:31;94379.09;;;47.10;22.67
9721;BME280;4899;42.644;23.366;2022-07-01T11:50:59;94360.72;;;47.41;22.91
9721;BME280;4899;42.644;23.366;2022-07-01T11:53:27;94376.75;;;48.30;22.53
9721;BME280;4899;42.644;23.366;2022-07-01T11:55:56;94371.91;;;48.14;21.82
9721;BME280;4899;42.644;23.366;2022-07-01T11:58:22;94365.44;;;48.42;22.21
9721;BME280;4899;42.644;23.366;2022-07-01T12:00:49;94365.34;;;48.57;22.11
9721;BME280;4899;42.644;23.366;2022-07-01T12:03:31;94368.63;;;48.63;22.20
9721;BME280;4899;42.644;23.366;2022-07-01T12:05:58;94364.59;;;48.64;22.50
9721;BME280;4899;42.644;23.366;2022-07-01T12:08:26;94342.13;;;47.93;21.58
9721;BME280;4899;42.644;23.366;2022-07-01T12:10:53;94344.66;;;46.69;20.97
9721;BME280;4899;42.644;23.366;2022-07-01T12:13:25;94346.25;;;46.56;22.70
9721;BME280;4899;42.644;23.366;2022-07-01T12:15:52;94350.53;;;46.88;22.87
9721;BME280;4899;42.644;23.366;2022-07-01T12:18:19;94348.34;;;47.09;21.47
9721;BME280;4899;42.644;23.366;2022-07-01T12:20:50;94348.75;;;47.36;21.33
9721;BME280;4899;42.644;23.366;2022-07-01T12:23:17;94347.81;;;47.57;20.03
9721;BME280;4899;42.644;23.366;2022-07-01T12:25:48;94341.31;;;48.88;20.88
9721;BME280;4899;42.644;23.366;2022-07-01T12:28:28;94346.09;;;49.89;21.08
9721;BME280;4899;42.644;23.366;2022-07-01T12:31:00;94343.94;;;50.49;19.43
9721;BME280;4899;42.644;23.366;2022-07-01T12:33:27;94349.16;;;50.55;20.33
9721;BME280;4899;42.644;23.366;2022-07-01T12:35:54;94349.56;;;50.07;20.97
9721;BME280;4899;42.644;23.366;2022-07-01T12:38:21;94334.75;;;49.93;18.42
9721;BME280;4899;42.644;23.366;2022-07-01T12:40:48;94346.25;;;49.91;18.05
9721;BME280;4899;42.644;23.366;2022-07-01T12:43:27;94327.13;;;50.08;18.77
9721;BME280;4899;42.644;23.366;2022-07-01T12:46:03;94327.00;;;50.33;20.72
9721;BME280;4899;42.644;23.366;2022-07-01T12:48:47;94320.31;;;50.54;20.43
9721;BME280;4899;42.644;23.366;2022-07-01T12:51:14;94319.50;;;50.16;20.62
9721;BME280;4899;42.644;23.366;2022-07-01T12:53:41;94316.31;;;49.41;21.23
9721;BME280;4899;42.644;23.366;2022-07-01T12:56:08;94313.59;;;48.91;22.72
9721;BME280;4899;42.644;23.366;2022-07-01T12:58:49;94323.41;;;48.29;22.99
9721;BME280;4899;42.644;23.366;2022-07-01T13:01:19;94323.78;;;47.70;23.72
9721;BME280;4899;42.644;23.366;2022-07-01T13:03:47;94326.69;;;46.66;25.40
9721;BME280;4899;42.644;23.366;2022-07-01T13:06:14;94311.75;;;46.44;25.04
9721;BME280;4899;42.644;23.366;2022-07-01T13:08:41;94305.69;;;47.12;24.85
9721;BME280;4899;42.644;23.366;2022-07-01T13:11:07;94316.56;;;47.27;23.94
9721;BME280;4899;42.644;23.366;2022-07-01T13:13:34;94313.31;;;46.91;24.04
9721;BME280;4899;42.644;23.366;2022-07-01T13:16:03;94303.97;;;46.55;24.25